createdAt,value
2023-07-03T00:00:08.061Z,71.91
2023-07-03T00:03:14.949Z,70.42
2023-07-03T00:06:17.495Z,69.80
2023-07-03T00:09:20.192Z,71.27
2023-07-03T00:12:22.798Z,71.61
2023-07-03T00:15:25.270Z,69.66
2023-07-03T00:18:29.696Z,69.95
2023-07-03T00:21:32.167Z,70.83
2023-07-03T00:24:35.023Z,71.54
2023-07-03T00:27:37.817Z,72.29
2023-07-03T00:30:40.225Z,73.27
2023-07-03T00:33:43.050Z,73.48
2023-07-03T00:36:47.196Z,73.48
2023-07-03T00:39:50.067Z,74.50
2023-07-03T00:42:54.160Z,73.65
2023-07-03T00:45:56.811Z,77.22
2023-07-03T00:49:00.119Z,76.21
2023-07-03T00:52:03.776Z,75.17
2023-07-03T00:55:07.363Z,74.90
2023-07-03T00:58:10.110Z,73.16
2023-07-03T01:01:21.619Z,73.12
2023-07-03T01:04:31.605Z,74.68
2023-07-03T01:07:37.091Z,77.10
2023-07-03T01:10:42.423Z,76.23
2023-07-03T01:13:46.603Z,76.99
2023-07-03T01:16:51.149Z,79.34
2023-07-03T01:19:55.016Z,80.51
2023-07-03T01:23:19.206Z,79.62
2023-07-03T01:26:23.136Z,80.27
2023-07-03T01:29:25.986Z,81.12
2023-07-03T01:32:32.301Z,80.46
2023-07-03T01:35:35.025Z,80.92
2023-07-03T01:38:41.940Z,79.83
2023-07-03T01:41:45.278Z,81.32
2023-07-03T01:44:48.397Z,81.06
2023-07-03T01:47:51.193Z,81.81
2023-07-03T01:50:53.909Z,81.30
2023-07-03T01:54:24.862Z,82.57
2023-07-03T01:57:39.179Z,80.24
2023-07-03T02:00:49.730Z,81.78
2023-07-03T02:04:07.072Z,82.85
2023-07-03T02:07:12.655Z,82.83
2023-07-03T02:10:15.117Z,82.41
2023-07-03T02:13:18.312Z,82.29
2023-07-03T02:16:21.102Z,83.02
2023-07-03T02:19:29.574Z,83.67
2023-07-03T02:22:32.717Z,84.89
2023-07-03T02:25:35.319Z,83.96
2023-07-03T02:28:38.036Z,85.75
2023-07-03T02:31:41.527Z,86.52
2023-07-03T02:34:44.208Z,86.21
2023-07-03T02:37:46.868Z,86.50
2023-07-03T02:40:49.368Z,87.00
2023-07-03T02:43:52.139Z,87.26
2023-07-03T02:46:55.077Z,89.58
2023-07-03T02:49:58.082Z,86.80
2023-07-03T02:53:01.246Z,87.77
2023-07-03T02:56:04.411Z,87.41
2023-07-03T02:59:07.599Z,88.84
2023-07-03T03:02:12.747Z,87.86
2023-07-03T03:05:15.488Z,89.75
2023-07-03T03:08:19.516Z,89.15
2023-07-03T03:11:21.949Z,89.78
2023-07-03T03:14:28.819Z,91.29
2023-07-03T03:17:31.864Z,90.30
2023-07-03T03:20:34.671Z,91.08
2023-07-03T03:23:37.616Z,91.22
2023-07-03T03:26:40.098Z,91.78
2023-07-03T03:29:43.011Z,93.17
2023-07-03T03:32:45.815Z,93.70
2023-07-03T03:35:48.728Z,92.45
2023-07-03T03:38:52.047Z,92.82
2023-07-03T03:41:55.228Z,93.78
2023-07-03T03:44:57.930Z,94.54
2023-07-03T03:48:00.979Z,95.28
2023-07-03T03:51:04.427Z,94.98
2023-07-03T03:54:08.936Z,95.56
2023-07-03T03:57:12.112Z,94.63
2023-07-03T04:00:18.460Z,93.89
2023-07-03T04:03:21.791Z,94.21
2023-07-03T04:06:24.223Z,94.60
2023-07-03T04:09:26.932Z,94.16
2023-07-03T04:12:29.363Z,94.29
2023-07-03T04:15:36.610Z,94.46
2023-07-03T04:18:39.697Z,93.05
2023-07-03T04:21:42.468Z,92.07
2023-07-03T04:24:45.384Z,92.42
2023-07-03T04:27:47.914Z,90.14
2023-07-03T04:30:51.119Z,89.60
2023-07-03T04:33:53.789Z,90.48
2023-07-03T04:36:56.208Z,90.32
2023-07-03T04:39:59.124Z,89.85
2023-07-03T04:43:02.396Z,87.35
2023-07-03T04:46:05.290Z,87.11
2023-07-03T04:49:09.206Z,83.43
2023-07-03T04:52:12.323Z,81.59
2023-07-03T04:55:15.548Z,80.13
2023-07-03T04:58:18.035Z,78.46
2023-07-03T05:02:44.711Z,78.72
2023-07-03T05:05:47.229Z,80.13
2023-07-03T05:09:09.904Z,80.35
2023-07-03T05:12:12.935Z,81.78
2023-07-03T05:15:16.836Z,81.62
2023-07-03T05:18:19.346Z,81.41
2023-07-03T05:21:22.050Z,80.29
2023-07-03T05:24:24.681Z,79.73
2023-07-03T05:27:27.131Z,78.74
2023-07-03T05:30:29.960Z,78.44
2023-07-03T05:33:32.640Z,77.47
2023-07-03T05:36:37.143Z,75.71
2023-07-03T05:39:39.940Z,73.22
2023-07-03T05:42:42.414Z,73.62
2023-07-03T05:45:45.743Z,71.06
2023-07-03T05:48:48.168Z,70.10
2023-07-03T05:51:50.709Z,67.82
2023-07-03T05:54:53.958Z,68.70
2023-07-03T05:57:56.372Z,71.76
2023-07-03T06:01:00.387Z,71.46
2023-07-03T06:04:03.627Z,72.45
2023-07-03T06:07:07.374Z,74.34
2023-07-03T06:10:12.238Z,73.07
2023-07-03T06:13:15.297Z,72.84
2023-07-03T06:16:17.829Z,74.70
2023-07-03T06:19:21.731Z,73.22
2023-07-03T06:22:24.611Z,72.71
2023-07-03T06:25:27.299Z,72.96
2023-07-03T06:28:29.821Z,71.50
2023-07-03T06:31:32.635Z,72.83
2023-07-03T06:34:35.324Z,69.04
2023-07-03T06:37:40.793Z,66.42
2023-07-03T06:40:43.385Z,64.98
2023-07-03T06:43:45.900Z,65.45
2023-07-03T06:46:50.240Z,60.89
2023-07-03T06:49:52.745Z,60.63
2023-07-03T06:52:55.367Z,58.84
2023-07-03T06:55:59.288Z,59.42
2023-07-03T06:59:01.830Z,57.70
2023-07-03T07:02:06.842Z,57.83
2023-07-03T07:05:09.551Z,55.08
2023-07-03T07:08:17.789Z,54.61
2023-07-03T07:11:30.209Z,52.69
2023-07-03T07:14:32.904Z,51.29
2023-07-03T07:17:46.339Z,53.41
2023-07-03T07:20:55.525Z,53.14
2023-07-03T07:24:01.026Z,53.80
2023-07-03T07:27:06.174Z,53.68
2023-07-03T07:30:09.183Z,56.10
2023-07-03T07:33:11.816Z,55.82
2023-07-03T07:36:15.691Z,51.33
2023-07-03T07:39:21.432Z,51.48
2023-07-03T07:42:24.016Z,48.13
2023-07-03T07:45:26.722Z,50.24
2023-07-03T07:48:31.134Z,47.96
2023-07-03T07:51:35.618Z,48.68
2023-07-03T07:54:38.108Z,47.72
2023-07-03T07:57:41.437Z,45.17
2023-07-03T08:00:45.186Z,44.39
2023-07-03T08:03:47.896Z,44.66
2023-07-03T08:06:50.372Z,41.64
2023-07-03T08:09:52.948Z,45.96
2023-07-03T08:12:55.835Z,44.12
2023-07-03T08:15:58.998Z,41.76
2023-07-03T08:19:01.607Z,38.76
2023-07-03T08:22:04.160Z,42.51
2023-07-03T08:25:07.841Z,38.42
2023-07-03T08:28:11.040Z,34.07
2023-07-03T08:31:13.536Z,32.78
2023-07-03T08:34:16.619Z,35.32
2023-07-03T08:37:19.224Z,35.17
2023-07-03T08:40:23.753Z,36.81
2023-07-03T08:43:33.502Z,36.85
2023-07-03T08:46:38.022Z,32.31
2023-07-03T08:49:42.322Z,35.87
2023-07-03T08:52:54.770Z,33.42
2023-07-03T08:56:04.482Z,37.05
2023-07-03T08:59:07.370Z,37.72
2023-07-03T09:02:34.094Z,36.55
2023-07-03T09:05:55.113Z,34.48
2023-07-03T09:09:24.480Z,31.69
2023-07-03T09:12:52.062Z,34.78
2023-07-03T09:16:05.412Z,34.47
2023-07-03T09:19:18.140Z,32.82
2023-07-03T09:22:37.742Z,33.06
2023-07-03T09:25:51.544Z,28.55
2023-07-03T09:28:59.608Z,30.52
2023-07-03T09:32:02.474Z,33.50
2023-07-03T09:35:13.269Z,36.78
2023-07-03T09:38:18.865Z,32.00
2023-07-03T09:41:34.439Z,28.68
2023-07-03T09:44:42.820Z,33.17
2023-07-03T09:47:54.754Z,29.82
2023-07-03T09:51:07.193Z,31.20
2023-07-03T09:54:20.814Z,30.73
2023-07-03T09:57:28.010Z,28.94
2023-07-03T10:00:30.662Z,28.33
2023-07-03T10:03:36.701Z,29.53
2023-07-03T10:06:40.915Z,31.13
2023-07-03T10:13:02.844Z,29.54
2023-07-03T10:16:06.963Z,27.64
2023-07-03T10:19:11.167Z,29.83
2023-07-03T10:22:15.178Z,31.01
2023-07-03T10:25:24.209Z,31.32
2023-07-03T10:28:35.995Z,30.91
2023-07-03T10:31:59.656Z,29.88
2023-07-03T10:35:10.029Z,32.18
2023-07-03T10:38:24.650Z,32.94
2023-07-03T10:41:36.330Z,34.31
2023-07-03T10:44:41.974Z,31.04
2023-07-03T10:47:52.506Z,30.54
2023-07-03T10:51:05.699Z,33.92
2023-07-03T10:54:19.616Z,30.91
2023-07-03T10:57:34.580Z,30.53
2023-07-03T11:00:43.974Z,32.77
2023-07-03T11:04:22.763Z,29.85
2023-07-03T11:07:52.270Z,30.34
2023-07-03T11:11:17.800Z,29.64
2023-07-03T11:14:47.282Z,29.64
2023-07-03T11:24:25.958Z,32.51
2023-07-03T11:30:45.316Z,33.86
2023-07-03T11:37:03.471Z,31.01
2023-07-03T11:40:34.537Z,35.05
2023-07-03T11:43:48.036Z,35.69
2023-07-03T11:46:54.256Z,34.98
2023-07-03T11:50:02.320Z,35.20
2023-07-03T11:53:05.417Z,36.94
2023-07-03T11:56:14.982Z,37.76
2023-07-03T11:59:24.122Z,36.64
2023-07-03T12:02:26.807Z,39.27
2023-07-03T12:05:51.426Z,38.28
2023-07-03T12:08:54.370Z,37.53
2023-07-03T12:12:04.323Z,32.99
2023-07-03T12:15:13.364Z,34.59
2023-07-03T12:18:16.520Z,35.82
2023-07-03T12:21:19.299Z,32.69
2023-07-03T12:24:28.166Z,34.33
2023-07-03T12:27:30.874Z,38.25
2023-07-03T12:30:33.314Z,35.87
2023-07-03T12:33:35.843Z,37.62
2023-07-03T12:36:40.399Z,33.63
2023-07-03T12:39:46.997Z,35.32
2023-07-03T12:42:52.867Z,36.30
2023-07-03T12:45:55.888Z,36.61
2023-07-03T12:49:15.180Z,38.26
2023-07-03T12:52:17.678Z,33.81
2023-07-03T12:55:20.361Z,33.29
2023-07-03T12:58:24.465Z,38.87
2023-07-03T13:01:28.069Z,40.21
2023-07-03T13:04:35.247Z,40.22
2023-07-03T13:07:41.403Z,39.88
2023-07-03T13:11:03.744Z,37.64
2023-07-03T13:14:27.520Z,37.20
2023-07-03T13:17:31.558Z,40.68
2023-07-03T13:20:35.216Z,38.09
2023-07-03T13:23:42.739Z,36.56
2023-07-03T13:26:49.386Z,36.69
2023-07-03T13:29:58.898Z,39.44
2023-07-03T13:33:07.961Z,39.99
2023-07-03T13:36:58.691Z,38.64
2023-07-03T13:40:03.172Z,35.15
2023-07-03T13:43:06.304Z,34.53
2023-07-03T13:46:09.395Z,36.41
2023-07-03T13:49:15.551Z,33.44
2023-07-03T13:52:18.152Z,35.39
2023-07-03T13:55:21.206Z,35.22
2023-07-03T13:58:24.057Z,34.91
2023-07-03T14:01:27.355Z,34.17
2023-07-03T14:04:30.338Z,37.39
2023-07-03T14:07:33.034Z,37.10
2023-07-03T14:10:35.574Z,38.22
2023-07-03T14:13:39.252Z,35.38
2023-07-03T14:16:42.077Z,35.55
2023-07-03T14:19:44.502Z,34.76
2023-07-03T14:22:49.611Z,34.60
2023-07-03T14:25:52.678Z,29.62
2023-07-03T14:28:55.334Z,32.06
2023-07-03T14:31:58.319Z,29.55
2023-07-03T14:35:02.118Z,31.15
2023-07-03T14:38:04.863Z,32.21
2023-07-03T14:41:07.479Z,31.91
2023-07-03T14:44:10.166Z,32.43
2023-07-03T14:47:12.834Z,31.32
2023-07-03T14:50:15.341Z,34.78
2023-07-03T14:53:18.253Z,34.88
2023-07-03T14:56:20.751Z,35.27
2023-07-03T14:59:23.715Z,35.27
2023-07-03T15:02:27.386Z,34.30
2023-07-03T15:05:29.805Z,33.55
2023-07-03T15:08:32.788Z,36.85
2023-07-03T15:11:36.395Z,36.70
2023-07-03T15:14:40.257Z,34.89
2023-07-03T15:17:42.977Z,35.29
2023-07-03T15:20:47.061Z,35.31
2023-07-03T15:23:51.799Z,35.23
2023-07-03T15:26:54.554Z,34.87
2023-07-03T15:29:57.389Z,35.41
2023-07-03T15:33:00.103Z,38.07
2023-07-03T15:36:03.832Z,35.89
2023-07-03T15:39:07.337Z,36.87
2023-07-03T15:42:10.483Z,35.50
2023-07-03T15:45:13.158Z,37.71
2023-07-03T15:48:15.948Z,37.07
2023-07-03T15:51:18.882Z,37.89
2023-07-03T15:54:21.984Z,36.48
2023-07-03T15:57:24.495Z,36.90
2023-07-03T16:00:27.201Z,37.62
2023-07-03T16:03:30.602Z,37.53
2023-07-03T16:06:35.474Z,38.62
2023-07-03T16:09:38.122Z,39.38
2023-07-03T16:12:40.549Z,40.85
2023-07-03T16:15:43.326Z,41.77
2023-07-03T16:18:50.210Z,41.61
2023-07-03T16:21:52.665Z,42.34
2023-07-03T16:24:55.489Z,43.13
2023-07-03T16:27:58.305Z,44.59
2023-07-03T16:31:07.977Z,43.59
2023-07-03T16:34:10.639Z,44.73
2023-07-03T16:37:13.351Z,45.20
2023-07-03T16:40:15.984Z,44.04
2023-07-03T16:43:18.462Z,45.52
2023-07-03T16:46:22.658Z,46.88
2023-07-03T16:49:25.258Z,46.85
2023-07-03T16:52:27.653Z,46.93
2023-07-03T16:55:30.221Z,47.54
2023-07-03T16:58:33.867Z,47.62
2023-07-03T17:01:36.497Z,48.42
2023-07-03T17:04:39.094Z,48.62
2023-07-03T17:07:42.195Z,49.63
2023-07-03T17:10:44.831Z,51.01
2023-07-03T17:13:49.029Z,51.52
2023-07-03T17:16:51.842Z,51.09
2023-07-03T17:19:54.720Z,50.93
2023-07-03T17:22:57.181Z,51.78
2023-07-03T17:26:01.671Z,52.40
2023-07-03T17:29:04.931Z,52.82
2023-07-03T17:32:07.582Z,53.56
2023-07-03T17:35:11.462Z,53.83
2023-07-03T17:38:15.690Z,54.08
2023-07-03T17:41:20.016Z,54.85
2023-07-03T17:44:23.070Z,54.31
2023-07-03T17:47:25.838Z,54.14
2023-07-03T17:50:28.484Z,54.66
2023-07-03T17:53:30.942Z,54.28
2023-07-03T17:56:33.849Z,55.20
2023-07-03T17:59:37.124Z,54.92
2023-07-03T18:02:39.944Z,54.42
2023-07-03T18:05:42.643Z,55.27
2023-07-03T18:08:45.102Z,55.47
2023-07-03T18:11:47.875Z,55.22
2023-07-03T18:14:50.299Z,55.27
2023-07-03T18:17:53.382Z,57.37
2023-07-03T18:20:56.226Z,57.89
2023-07-03T18:23:58.881Z,57.64
2023-07-03T18:27:02.077Z,59.55
2023-07-03T18:30:05.119Z,59.54
2023-07-03T18:33:07.858Z,61.62
2023-07-03T18:36:10.623Z,63.07
2023-07-03T18:39:13.167Z,64.25
2023-07-03T18:42:15.889Z,64.18
2023-07-03T18:45:18.371Z,62.67
2023-07-03T18:48:21.034Z,62.22
2023-07-03T18:51:24.244Z,61.68
2023-07-03T18:54:26.798Z,61.37
2023-07-03T18:57:29.604Z,61.69
2023-07-03T19:00:32.538Z,61.66
2023-07-03T19:03:35.356Z,61.45
2023-07-03T19:06:40.307Z,61.37
2023-07-03T19:09:43.213Z,61.30
2023-07-03T19:12:46.743Z,61.48
2023-07-03T19:15:49.495Z,62.04
2023-07-03T19:18:52.431Z,61.39
2023-07-03T19:21:55.243Z,64.15
2023-07-03T19:24:57.725Z,66.09
2023-07-03T19:28:00.601Z,67.29
2023-07-03T19:31:03.885Z,67.09
2023-07-03T19:34:06.840Z,68.81
2023-07-03T19:37:09.460Z,70.38
2023-07-03T19:40:12.206Z,70.43
2023-07-03T19:43:15.714Z,71.79
2023-07-03T19:46:18.421Z,70.86
2023-07-03T19:49:21.139Z,72.64
2023-07-03T19:52:23.978Z,74.42
2023-07-03T19:55:28.037Z,73.84
2023-07-03T19:58:31.560Z,74.46
2023-07-03T20:01:34.258Z,77.57
2023-07-03T20:04:37.241Z,77.79
2023-07-03T20:07:39.942Z,78.00
2023-07-03T20:10:42.817Z,78.46
2023-07-03T20:16:49.636Z,73.94
2023-07-03T20:19:53.085Z,76.05
2023-07-03T20:22:55.709Z,78.23
2023-07-03T20:25:59.018Z,80.02
2023-07-03T20:29:02.155Z,78.25
2023-07-03T20:32:06.592Z,77.94
2023-07-03T20:35:09.307Z,76.80
2023-07-03T20:38:12.053Z,78.15
2023-07-03T20:41:18.690Z,77.80
2023-07-03T20:44:21.299Z,78.69
2023-07-03T20:47:25.894Z,79.50
2023-07-03T20:50:28.785Z,77.10
2023-07-03T20:53:48.920Z,77.86
2023-07-03T20:56:51.448Z,77.00
2023-07-03T20:59:54.042Z,79.29
2023-07-03T21:02:56.545Z,79.64
2023-07-03T21:05:59.170Z,85.38
2023-07-03T21:09:02.508Z,85.89
2023-07-03T21:12:05.533Z,88.04
2023-07-03T21:15:11.416Z,85.38
2023-07-03T21:18:13.849Z,85.21
2023-07-03T21:21:21.394Z,86.38
2023-07-03T21:24:23.990Z,84.74
2023-07-03T21:27:26.390Z,84.40
2023-07-03T21:30:29.626Z,83.77
2023-07-03T21:33:34.524Z,81.61
2023-07-03T21:36:37.078Z,81.87
2023-07-03T21:39:40.532Z,82.20
2023-07-03T21:42:43.229Z,84.09
2023-07-03T21:45:46.091Z,84.61
2023-07-03T21:48:52.430Z,85.33
2023-07-03T21:51:55.374Z,85.15
2023-07-03T21:54:58.001Z,85.93
2023-07-03T21:58:00.469Z,83.55
2023-07-03T22:01:04.671Z,85.43
2023-07-03T22:04:09.010Z,86.76
2023-07-03T22:07:13.656Z,89.14
2023-07-03T22:10:16.535Z,91.02
2023-07-03T22:13:19.632Z,90.27
2023-07-03T22:16:22.382Z,92.56
2023-07-03T22:19:25.031Z,93.05
2023-07-03T22:22:27.892Z,92.37
2023-07-03T22:25:31.070Z,91.21
2023-07-03T22:28:33.678Z,90.39
2023-07-03T22:31:36.717Z,89.97
2023-07-03T22:34:39.281Z,90.62
2023-07-03T22:37:42.805Z,89.93
2023-07-03T22:40:45.507Z,87.03
2023-07-03T22:43:47.934Z,89.15
2023-07-03T22:46:51.935Z,87.65
2023-07-03T22:49:54.522Z,86.51
2023-07-03T22:52:57.296Z,89.44
2023-07-03T22:56:03.131Z,90.66
2023-07-03T22:59:05.672Z,92.50
2023-07-03T23:02:08.380Z,92.79
2023-07-03T23:05:12.062Z,92.89
2023-07-03T23:08:15.668Z,94.36
2023-07-03T23:11:18.496Z,92.69
2023-07-03T23:14:21.373Z,92.21
2023-07-03T23:17:28.139Z,94.12
2023-07-03T23:20:31.807Z,94.31
2023-07-03T23:23:35.011Z,90.24
2023-07-03T23:26:38.475Z,91.38
2023-07-03T23:29:41.740Z,89.21
2023-07-03T23:32:44.718Z,90.13
2023-07-03T23:35:47.266Z,90.97
2023-07-03T23:38:51.007Z,93.40
2023-07-03T23:41:53.823Z,93.70
2023-07-03T23:44:56.263Z,94.54
2023-07-03T23:47:59.568Z,95.12
2023-07-03T23:51:04.620Z,95.73
2023-07-03T23:54:07.388Z,95.75
2023-07-03T23:57:10.076Z,97.79
